Time;durP1;ratioP1;P1;durP2;ratioP2;P2;SDS_P1;SDS_P2;PMS_P1;PMS_P2;Temp;Humidity;BMP_temperature;BMP_pressure;BME280_temperature;BME280_humidity;BME280_pressure;Samples;Min_cycle;Max_cycle;Signal;HPM_P1;HPM_P2
2023/02/02 00:01:28;;;;;;;2.17;1.63;;;;;;;5.40;59.47;101403.00;4993451;28;20029;-88
2023/02/02 00:03:54;;;;;;;1.55;1.08;;;;;;;5.35;59.41;101394.53;5009508;28;20034;-88
2023/02/02 00:06:21;;;;;;;4.00;1.92;;;;;;;5.27;59.39;101373.25;4993688;28;20416;-88
2023/02/02 00:08:46;;;;;;;3.20;1.20;;;;;;;5.35;59.50;101397.09;4977296;28;20123;-88
2023/02/02 00:11:12;;;;;;;2.67;1.60;;;;;;;5.39;59.15;101405.59;4993240;28;20503;-88
2023/02/02 00:13:38;;;;;;;5.13;2.38;;;;;;;5.33;59.12;101387.72;4977273;28;20022;-89
2023/02/02 00:16:25;;;;;;;1.50;1.00;;;;;;;5.45;59.25;101388.38;4989113;28;20113;-88
2023/02/02 00:18:51;;;;;;;1.88;1.73;;;;;;;5.27;59.17;101369.84;4989966;28;20034;-88
2023/02/02 00:21:17;;;;;;;1.25;1.15;;;;;;;5.29;59.17;101378.38;4989864;28;20561;-88
2023/02/02 00:23:42;;;;;;;1.98;0.90;;;;;;;5.36;58.69;101378.25;4989698;28;20037;-88
2023/02/02 00:26:08;;;;;;;2.67;1.70;;;;;;;5.33;58.78;101380.88;5006400;28;20247;-88
2023/02/02 00:28:33;;;;;;;2.15;1.65;;;;;;;5.26;58.60;101369.00;4989956;28;20030;-88
2023/02/02 00:30:59;;;;;;;1.80;1.15;;;;;;;5.36;58.55;101373.13;5006115;28;20081;-88
2023/02/02 00:33:24;;;;;;;1.13;0.88;;;;;;;5.23;58.19;101348.53;4973761;28;20137;-88
2023/02/02 00:35:53;;;;;;;0.68;0.60;;;;;;;5.41;58.29;101373.91;5006343;28;20030;-89
2023/02/02 00:38:18;;;;;;;0.52;0.52;;;;;;;5.22;58.27;101351.97;4989975;28;20037;-88
2023/02/02 00:40:44;;;;;;;2.47;1.45;;;;;;;5.09;58.88;101340.19;4990222;28;20030;-87
2023/02/02 00:43:09;;;;;;;1.90;1.48;;;;;;;5.23;58.47;101358.81;5006391;28;20142;-88
2023/02/02 00:45:36;;;;;;;1.25;1.00;;;;;;;5.02;58.04;101313.81;4989512;28;20454;-88
2023/02/02 00:48:01;;;;;;;0.85;0.70;;;;;;;5.23;58.25;101352.81;4989925;28;20026;-88
2023/02/02 00:50:27;;;;;;;1.02;0.88;;;;;;;5.21;58.26;101354.53;4975370;28;20681;-88
2023/02/02 00:52:52;;;;;;;2.28;1.63;;;;;;;5.10;58.20;101331.63;5009951;28;20027;-88
2023/02/02 00:55:18;;;;;;;1.17;0.98;;;;;;;5.29;58.12;101362.97;4993577;28;20425;-88
2023/02/02 00:57:43;;;;;;;1.38;0.80;;;;;;;5.23;58.68;101356.25;4994843;28;20026;-90
2023/02/02 01:00:16;;;;;;;3.85;1.35;;;;;;;5.22;58.35;101351.13;4980544;28;20022;-88
2023/02/02 01:02:42;;;;;;;1.58;1.30;;;;;;;5.21;58.66;101360.56;4996673;28;20030;-88
2023/02/02 01:05:08;;;;;;;2.47;1.55;;;;;;;4.93;58.81;101318.22;4996747;28;20037;-88
2023/02/02 01:07:34;;;;;;;3.00;1.73;;;;;;;5.08;59.17;101339.34;4996300;28;20029;-89
2023/02/02 01:09:59;;;;;;;1.73;0.82;;;;;;;4.89;59.04;101323.38;5012408;28;20030;-88
2023/02/02 01:12:24;;;;;;;1.83;1.33;;;;;;;5.08;59.33;101359.00;4996061;28;20493;-89
2023/02/02 01:14:50;;;;;;;2.72;1.02;;;;;;;4.88;60.00;101337.06;4996498;28;20025;-89
2023/02/02 01:17:15;;;;;;;1.77;1.08;;;;;;;4.97;60.03;101360.88;5014056;28;20096;-90
2023/02/02 01:19:41;;;;;;;1.08;0.98;;;;;;;4.80;60.09;101353.41;4996636;28;20029;-88
2023/02/02 01:22:07;;;;;;;7.65;1.05;;;;;;;4.89;59.82;101373.81;5012692;28;20512;-88
2023/02/02 01:24:32;;;;;;;1.70;1.27;;;;;;;4.84;60.03;101371.31;4996109;28;20394;-88
2023/02/02 01:26:58;;;;;;;1.42;1.17;;;;;;;4.81;59.94;101355.97;4995888;28;20030;-89
2023/02/02 01:29:23;;;;;;;2.42;1.90;;;;;;;4.90;59.95;101367.81;4979995;28;20018;-88
2023/02/02 01:31:49;;;;;;;4.75;2.58;;;;;;;4.90;60.44;101370.38;5012168;28;20030;-89
2023/02/02 01:34:14;;;;;;;1.80;1.30;;;;;;;4.77;60.23;101356.88;5012534;28;20428;-88
2023/02/02 01:36:40;;;;;;;2.42;1.38;;;;;;;4.81;60.23;101366.22;4996102;28;20041;-88
2023/02/02 01:39:05;;;;;;;2.17;1.45;;;;;;;4.70;60.33;101359.53;5012260;28;20026;-88
2023/02/02 01:41:32;;;;;;;2.47;1.55;;;;;;;4.68;60.48;101369.81;4995849;28;20029;-88
2023/02/02 01:44:02;;;;;;;1.25;0.98;;;;;;;4.60;60.94;101351.13;4996016;28;20050;-88
2023/02/02 01:46:32;;;;;;;4.10;2.38;;;;;;;4.68;60.44;101344.19;4996075;28;20084;-88
2023/02/02 01:49:14;;;;;;;4.35;1.25;;;;;;;4.82;60.41;101360.25;4995882;28;20033;-88
2023/02/02 01:51:43;;;;;;;2.17;1.77;;;;;;;4.70;60.60;101347.56;5012476;28;20434;-88
2023/02/02 01:54:12;;;;;;;3.65;2.20;;;;;;;4.78;60.45;101350.88;5012187;28;20026;-88
2023/02/02 01:56:51;;;;;;;3.65;2.47;;;;;;;4.69;60.27;101315.13;4995721;28;20508;-88
2023/02/02 01:59:17;;;;;;;5.28;2.78;;;;;;;4.88;59.71;101343.91;4992164;28;20048;-88
2023/02/02 02:01:43;;;;;;;1.75;1.20;;;;;;;4.98;59.20;101344.63;5008725;28;20034;-88
2023/02/02 02:04:09;;;;;;;2.42;1.15;;;;;;;5.12;59.12;101365.81;4992373;28;20064;-88
2023/02/02 02:06:35;;;;;;;3.03;1.80;;;;;;;5.16;59.10;101364.88;5008608;28;20038;-89
2023/02/02 02:09:04;;;;;;;0.80;0.80;;;;;;;5.08;59.16;101369.28;4992350;28;20061;-88
2023/02/02 02:11:31;;;;;;;1.95;1.38;;;;;;;5.09;58.80;101370.97;4992087;28;20026;-88
2023/02/02 02:16:55;;;;;;;10.13;2.47;;;;;;;5.10;58.95;101359.84;4992019;28;20033;-88
2023/02/02 02:19:30;;;;;;;5.22;3.50;;;;;;;5.07;58.83;101352.19;5008023;28;20045;-88
2023/02/02 02:29:08;;;;;;;11.35;4.22;;;;;;;4.99;59.21;101369.41;4977234;28;20482;-88
2023/02/02 02:31:33;;;;;;;2.70;1.73;;;;;;;5.10;59.09;101395.75;5006306;28;20454;-88
2023/02/02 02:34:02;;;;;;;1.58;1.33;;;;;;;5.15;58.51;101391.41;4993336;28;20065;-88
2023/02/02 02:37:05;;;;;;;1.30;1.20;;;;;;;5.19;59.02;101399.03;5007876;28;20022;-88
2023/02/02 02:39:42;;;;;;;1.85;1.65;;;;;;;5.15;59.14;101391.41;4970788;28;20118;-88
2023/02/02 02:42:19;;;;;;;6.82;4.07;;;;;;;5.25;58.84;101377.56;4957324;28;20045;-88
2023/02/02 02:44:44;;;;;;;5.50;2.38;;;;;;;5.30;58.61;101388.59;5007571;28;20096;-88
2023/02/02 02:47:10;;;;;;;2.10;1.20;;;;;;;5.01;58.48;101332.59;4991932;28;20474;-88
2023/02/02 02:49:45;;;;;;;1.27;1.17;;;;;;;5.14;59.00;101364.91;5007556;28;20399;-88
2023/02/02 02:52:11;;;;;;;0.70;0.60;;;;;;;5.00;59.33;101371.09;4975280;28;20406;-88
2023/02/02 02:54:40;;;;;;;0.75;0.70;;;;;;;4.84;59.38;101350.81;5007771;28;20037;-89
2023/02/02 02:57:28;;;;;;;2.05;1.25;;;;;;;4.84;59.79;101376.44;5007692;28;20088;-88
2023/02/02 03:00:15;;;;;;;1.35;0.93;;;;;;;4.93;60.25;101372.06;4981545;28;20042;-88
2023/02/02 03:02:48;;;;;;;2.13;0.90;;;;;;;4.98;59.83;101372.84;5007384;28;20081;-88
2023/02/02 03:05:29;;;;;;;0.47;0.47;;;;;;;4.93;60.18;101367.78;4991121;28;20038;-88
2023/02/02 03:08:13;;;;;;;1.20;0.93;;;;;;;4.96;59.85;101377.16;5007191;28;20030;-88
2023/02/02 03:10:39;;;;;;;1.33;1.10;;;;;;;4.92;59.90;101365.22;5006991;28;20525;-88
2023/02/02 03:13:09;;;;;;;1.30;1.00;;;;;;;4.79;59.77;101360.25;5006758;28;20062;-89
2023/02/02 03:15:35;;;;;;;2.22;1.38;;;;;;;4.60;59.86;101336.59;4992701;28;20026;-88
2023/02/02 03:18:00;;;;;;;1.00;0.82;;;;;;;4.64;60.28;101346.81;5009755;28;20508;-89
2023/02/02 03:20:25;;;;;;;1.52;0.73;;;;;;;4.79;60.20;101346.59;5010288;28;20504;-89
2023/02/02 03:22:51;;;;;;;1.27;0.93;;;;;;;4.81;59.92;101339.72;4994068;28;20033;-89
2023/02/02 03:25:16;;;;;;;1.15;1.00;;;;;;;4.70;59.72;101326.22;5010253;28;20025;-88
2023/02/02 03:27:42;;;;;;;3.33;1.38;;;;;;;4.80;60.51;101353.41;4994028;28;20448;-88
2023/02/02 03:30:09;;;;;;;1.30;0.80;;;;;;;4.83;60.01;101358.53;5010143;28;20037;-88
2023/02/02 03:32:35;;;;;;;1.70;1.30;;;;;;;4.84;59.67;101350.81;4993898;28;20025;-88
2023/02/02 03:35:01;;;;;;;1.77;1.10;;;;;;;4.75;59.80;101334.72;4994126;28;20429;-88
2023/02/02 03:37:26;;;;;;;2.33;0.88;;;;;;;4.53;59.73;101316.22;5010963;28;20053;-89
2023/02/02 03:39:51;;;;;;;1.00;0.90;;;;;;;4.69;59.57;101332.22;4994251;28;20037;-88
2023/02/02 03:42:17;;;;;;;2.35;1.23;;;;;;;4.70;59.58;101327.06;5011350;28;20034;-88
2023/02/02 03:44:42;;;;;;;1.40;1.08;;;;;;;4.55;59.85;101306.78;5010209;28;20038;-89
2023/02/02 03:47:08;;;;;;;3.60;1.20;;;;;;;4.60;60.21;101325.50;5011308;28;20030;-89
2023/02/02 03:49:34;;;;;;;2.40;1.23;;;;;;;4.69;60.19;101339.91;4993511;28;20505;-88
2023/02/02 03:52:01;;;;;;;2.40;1.95;;;;;;;4.58;60.12;101333.22;5009513;28;20037;-89
2023/02/02 03:54:27;;;;;;;1.80;1.25;;;;;;;4.64;60.03;101324.59;4993865;28;20404;-88
2023/02/02 03:56:52;;;;;;;6.65;2.85;;;;;;;4.43;60.25;101292.44;5010178;28;20044;-88
2023/02/02 03:59:18;;;;;;;6.68;2.95;;;;;;;4.53;60.51;101313.66;4993309;28;20058;-88
2023/02/02 04:01:43;;;;;;;2.10;1.58;;;;;;;4.55;60.59;101322.16;4993300;28;20493;-88
2023/02/02 04:04:09;;;;;;;4.15;2.88;;;;;;;4.42;60.89;101320.59;4993297;28;20025;-88
2023/02/02 04:06:34;;;;;;;2.97;1.30;;;;;;;4.37;60.75;101322.38;5000645;28;20026;-95
2023/02/02 04:08:59;;;;;;;1.17;1.08;;;;;;;4.42;61.54;101320.59;5013330;28;20021;-93
2023/02/02 04:11:25;;;;;;;0.88;0.85;;;;;;;4.40;61.10;101318.06;5033123;28;20026;-94
2023/02/02 04:13:51;;;;;;;1.67;1.58;;;;;;;4.12;61.44;101275.72;5068103;23;20057;-93
2023/02/02 04:16:16;;;;;;;0.90;0.90;;;;;;;4.15;61.62;101298.75;5036819;28;20029;-94
2023/02/02 04:18:42;;;;;;;1.52;0.98;;;;;;;4.11;62.07;101315.84;5040934;28;20033;-94
2023/02/02 04:21:07;;;;;;;5.60;5.07;;;;;;;4.03;62.29;101308.28;5055722;28;20029;-93
2023/02/02 04:23:33;;;;;;;1.38;0.93;;;;;;;3.69;62.03;101241.22;5139905;23;20086;-93
2023/02/02 04:25:58;;;;;;;6.22;1.60;;;;;;;3.77;61.86;101259.06;5019208;28;20041;-95
2023/02/02 04:28:24;;;;;;;1.20;0.85;;;;;;;4.18;61.60;101307.22;4996088;28;20576;-94
2023/02/02 04:30:51;;;;;;;1.48;1.27;;;;;;;4.26;61.56;101309.72;4992685;28;20498;-96
2023/02/02 04:33:16;;;;;;;0.70;0.57;;;;;;;4.13;62.01;101306.47;4975987;28;20582;-94
2023/02/02 04:35:42;;;;;;;1.92;0.77;;;;;;;3.94;61.89;101299.84;4978915;28;20038;-89
2023/02/02 04:38:07;;;;;;;0.77;0.77;;;;;;;4.05;61.91;101315.94;4991492;28;20022;-84
2023/02/02 04:40:33;;;;;;;1.92;1.40;;;;;;;4.05;61.98;101310.81;4994304;28;20030;-86
2023/02/02 04:42:58;;;;;;;1.95;1.33;;;;;;;4.01;62.11;101314.25;4994854;28;20031;-88
2023/02/02 04:45:24;;;;;;;1.17;0.55;;;;;;;4.07;62.16;101314.19;4993466;28;20485;-87
2023/02/02 04:47:49;;;;;;;1.73;1.58;;;;;;;4.13;61.91;101313.25;4993791;28;20049;-87
2023/02/02 04:50:15;;;;;;;1.02;0.77;;;;;;;4.14;61.69;101328.63;4976857;28;20030;-87
2023/02/02 04:52:41;;;;;;;2.10;1.33;;;;;;;4.15;61.39;101326.91;4961217;28;20033;-87
2023/02/02 04:55:07;;;;;;;2.17;1.00;;;;;;;4.25;61.26;101331.91;4994688;28;20433;-80
2023/02/02 04:57:32;;;;;;;1.42;1.33;;;;;;;4.26;61.01;101325.94;4994573;28;20032;-81
2023/02/02 04:59:58;;;;;;;1.38;1.27;;;;;;;4.35;60.23;101339.50;4975672;28;20034;-81
2023/02/02 05:02:23;;;;;;;0.65;0.65;;;;;;;4.31;60.27;101326.69;4973957;28;20445;-81
2023/02/02 05:04:49;;;;;;;1.05;0.95;;;;;;;4.34;60.20;101332.69;4965923;28;20037;-79
2023/02/02 05:07:14;;;;;;;2.67;1.20;;;;;;;4.40;60.25;101338.56;4973712;28;20058;-80
2023/02/02 05:09:40;;;;;;;1.02;0.80;;;;;;;4.22;59.85;101313.16;4957321;28;20039;-80
2023/02/02 05:12:05;;;;;;;1.63;1.52;;;;;;;4.39;60.27;101347.13;4956110;28;20073;-80
2023/02/02 05:14:31;;;;;;;2.97;2.70;;;;;;;4.42;60.15;101341.09;4973615;28;20081;-80
2023/02/02 05:16:56;;;;;;;5.80;1.73;;;;;;;4.51;59.72;101357.19;4957497;28;20475;-88
2023/02/02 05:19:22;;;;;;;1.55;1.45;;;;;;;4.42;59.75;101344.50;4951867;28;20034;-90
2023/02/02 05:21:48;;;;;;;2.47;1.63;;;;;;;4.38;59.79;101331.75;4959071;28;20018;-86
2023/02/02 05:24:14;;;;;;;2.15;1.10;;;;;;;4.51;59.49;101340.97;4977124;28;20406;-88
2023/02/02 05:26:39;;;;;;;1.50;1.40;;;;;;;4.60;59.42;101353.69;4972491;28;20105;-85
2023/02/02 05:29:05;;;;;;;1.73;1.13;;;;;;;4.57;59.21;101353.72;4972352;28;20023;-87
2023/02/02 05:31:31;;;;;;;1.77;1.20;;;;;;;4.47;59.53;101344.47;4972906;28;20034;-86
2023/02/02 05:33:57;;;;;;;2.67;1.48;;;;;;;4.60;59.22;101353.69;4954985;28;20031;-88
2023/02/02 05:36:23;;;;;;;2.78;1.80;;;;;;;4.67;59.02;101357.03;4953995;28;20052;-80
2023/02/02 05:38:48;;;;;;;1.23;1.13;;;;;;;4.69;59.11;101357.84;4987532;28;20023;-80
2023/02/02 05:41:14;;;;;;;2.80;2.55;;;;;;;4.60;59.63;101346.00;4971768;28;20041;-83
2023/02/02 05:43:39;;;;;;;3.63;1.65;;;;;;;4.68;59.14;101356.16;4974343;28;20065;-88
2023/02/02 05:46:05;;;;;;;4.80;2.55;;;;;;;4.67;59.12;101345.06;4973424;28;20050;-92
2023/02/02 05:48:30;;;;;;;3.63;2.65;;;;;;;4.55;58.94;101327.28;4957983;28;20027;-86
2023/02/02 05:50:58;;;;;;;5.35;2.58;;;;;;;4.75;59.19;101358.63;4963694;28;20104;-91
2023/02/02 05:53:24;;;;;;;3.15;1.67;;;;;;;4.59;59.52;101339.19;4992716;28;20100;-89
2023/02/02 05:55:49;;;;;;;8.20;3.33;;;;;;;4.64;59.52;101347.66;4966152;28;20494;-90
2023/02/02 05:58:15;;;;;;;11.13;3.40;;;;;;;4.61;59.83;101358.78;4963918;28;20082;-95
2023/02/02 06:00:40;;;;;;;4.60;3.15;;;;;;;4.57;59.94;101357.13;4974628;28;20041;-90
2023/02/02 06:03:06;;;;;;;5.03;3.30;;;;;;;4.52;60.13;101364.06;4973717;28;20433;-91
2023/02/02 06:05:31;;;;;;;3.35;2.20;;;;;;;4.44;60.10;101357.31;4976861;28;20132;-91
2023/02/02 06:07:57;;;;;;;5.28;3.28;;;;;;;4.46;59.63;101353.88;4975496;28;20027;-87
2023/02/02 06:10:22;;;;;;;5.80;3.20;;;;;;;4.49;60.28;101363.22;4990199;28;20041;-87
2023/02/02 06:12:47;;;;;;;6.32;3.97;;;;;;;4.52;59.99;101358.94;4992075;28;20466;-86
2023/02/02 06:15:13;;;;;;;5.78;3.30;;;;;;;4.20;60.38;101320.88;4972603;28;20085;-88
2023/02/02 06:17:38;;;;;;;4.07;2.67;;;;;;;4.39;60.30;101351.38;4983215;28;20031;-93
2023/02/02 06:20:04;;;;;;;4.13;2.67;;;;;;;4.39;60.54;101351.38;4973800;28;20038;-91
2023/02/02 06:22:31;;;;;;;4.97;2.95;;;;;;;4.41;60.79;101354.78;4969648;28;20072;-92
2023/02/02 06:24:57;;;;;;;5.25;2.78;;;;;;;4.40;60.98;101347.97;4975519;28;20042;-91
2023/02/02 06:27:23;;;;;;;5.13;2.80;;;;;;;4.44;61.80;101354.75;4985208;28;20504;-93
2023/02/02 06:29:48;;;;;;;36.15;21.30;;;;;;;4.45;61.10;101325.72;4985843;28;20126;-93
2023/02/02 06:32:14;;;;;;;6.93;4.75;;;;;;;4.45;61.32;101320.59;4975774;28;20133;-94
2023/02/02 06:34:39;;;;;;;3.55;3.25;;;;;;;4.46;62.19;101323.13;4980639;28;20037;-92
2023/02/02 06:37:05;;;;;;;5.38;4.00;;;;;;;4.40;60.86;101322.34;4994037;28;20035;-93
2023/02/02 06:39:30;;;;;;;6.43;4.82;;;;;;;4.42;60.42;101316.31;4991739;28;20041;-92
2023/02/02 06:41:56;;;;;;;11.65;5.30;;;;;;;4.58;60.35;101307.56;4972192;28;20027;-95
2023/02/02 06:44:21;;;;;;;8.07;5.00;;;;;;;4.70;59.42;101285.22;4989279;28;20047;-95
2023/02/02 06:46:47;;;;;;;4.05;3.55;;;;;;;4.74;59.18;101282.59;4963127;28;20026;-90
2023/02/02 06:49:12;;;;;;;4.90;3.72;;;;;;;4.93;59.32;101282.31;4970088;28;20039;-85
2023/02/02 06:51:38;;;;;;;4.90;4.40;;;;;;;5.16;58.13;101270.81;4954799;28;20035;-81
2023/02/02 06:54:03;;;;;;;7.63;2.78;;;;;;;5.37;57.38;101285.00;4981229;28;20034;-90
2023/02/02 06:56:29;;;;;;;3.63;2.53;;;;;;;5.47;57.06;101266.03;4985055;28;20030;-86
2023/02/02 06:58:55;;;;;;;8.65;2.40;;;;;;;5.72;56.63;101281.84;4973836;28;20687;-86
2023/02/02 07:01:20;;;;;;;2.20;1.92;;;;;;;5.83;56.13;101273.94;4985641;28;20034;-93
2023/02/02 07:03:50;;;;;;;6.97;4.55;;;;;;;5.90;56.64;101265.28;4947924;28;20484;-90
2023/02/02 07:06:19;;;;;;;4.82;2.85;;;;;;;6.06;55.96;101285.50;4969042;28;20023;-83
2023/02/02 07:08:45;;;;;;;4.43;2.50;;;;;;;6.03;55.76;101282.13;4992865;28;20103;-89
2023/02/02 07:11:11;;;;;;;6.93;3.58;;;;;;;6.04;55.81;101259.84;4973538;28;20023;-85
2023/02/02 07:13:36;;;;;;;3.15;2.80;;;;;;;6.18;55.41;101288.66;4987051;28;20039;-94
2023/02/02 07:16:03;;;;;;;4.90;2.42;;;;;;;6.26;54.48;101291.94;4974629;28;20049;-91
2023/02/02 07:18:29;;;;;;;8.57;3.10;;;;;;;6.33;55.22;101266.97;4966710;28;20043;-95
2023/02/02 07:20:58;;;;;;;6.97;4.13;;;;;;;6.29;54.61;101239.63;4989201;28;20035;-90
2023/02/02 07:23:23;;;;;;;5.15;3.22;;;;;;;6.29;54.30;101229.34;4977979;28;20136;-91
2023/02/02 07:25:49;;;;;;;4.03;3.47;;;;;;;6.49;53.72;101255.47;4958222;28;20525;-86
2023/02/02 07:28:14;;;;;;;8.02;4.35;;;;;;;6.44;53.51;101229.03;4966245;28;20050;-86
2023/02/02 07:30:40;;;;;;;6.40;4.35;;;;;;;6.69;53.44;101251.63;4976373;28;20462;-87
2023/02/02 07:33:05;;;;;;;5.88;3.67;;;;;;;6.80;53.01;101262.50;4959552;28;20037;-89
2023/02/02 07:35:31;;;;;;;9.02;2.80;;;;;;;6.91;52.18;101273.38;4951048;28;20042;-93
2023/02/02 07:37:56;;;;;;;9.52;4.15;;;;;;;6.85;51.78;101268.38;4982108;28;20037;-92
2023/02/02 07:40:22;;;;;;;6.22;3.45;;;;;;;6.88;52.83;101274.31;4968458;28;20027;-94
2023/02/02 07:42:47;;;;;;;4.60;3.80;;;;;;;6.95;52.64;101285.28;4959971;28;20034;-93
2023/02/02 07:45:14;;;;;;;4.18;2.40;;;;;;;6.89;52.02;101280.28;4971021;28;20065;-94
2023/02/02 07:47:39;;;;;;;4.90;3.17;;;;;;;7.02;51.60;101294.56;4955977;28;20027;-83
2023/02/02 07:50:05;;;;;;;5.35;2.65;;;;;;;7.06;51.55;101287.59;4954202;28;20392;-91
2023/02/02 07:52:30;;;;;;;10.13;3.60;;;;;;;7.14;51.35;101275.41;4970079;28;20031;-82
2023/02/02 07:54:56;;;;;;;10.05;4.25;;;;;;;7.25;51.89;101277.69;4986102;28;20042;-85
2023/02/02 07:57:22;;;;;;;3.65;2.28;;;;;;;7.45;51.19;101288.34;4985966;28;20085;-88
2023/02/02 07:59:49;;;;;;;5.65;3.05;;;;;;;7.39;51.89;101275.66;4970856;28;20031;-90
2023/02/02 08:02:15;;;;;;;16.52;7.78;;;;;;;7.46;51.15;101256.56;4961246;28;20096;-87
2023/02/02 08:04:40;;;;;;;10.00;6.25;;;;;;;7.67;51.19;101286.94;4970068;28;20478;-90
2023/02/02 08:07:06;;;;;;;8.50;3.65;;;;;;;7.51;51.30;101265.03;4970371;28;20030;-90
2023/02/02 08:09:31;;;;;;;4.28;1.98;;;;;;;7.64;50.75;101288.72;4963696;28;20014;-92
2023/02/02 08:12:00;;;;;;;10.52;3.28;;;;;;;7.74;50.69;101295.31;5007848;28;20521;-93
2023/02/02 08:14:26;;;;;;;3.92;2.53;;;;;;;7.78;51.20;101285.78;4987509;28;20058;-94
2023/02/02 08:16:51;;;;;;;4.15;2.72;;;;;;;7.74;51.55;101282.44;4980240;28;20076;-91
2023/02/02 08:19:17;;;;;;;4.97;3.28;;;;;;;7.74;51.58;101298.72;4979883;28;20034;-87
2023/02/02 08:21:42;;;;;;;4.45;2.22;;;;;;;7.80;51.66;101297.75;5006086;28;20042;-95
2023/02/02 08:24:08;;;;;;;5.82;2.70;;;;;;;7.68;51.79;101285.19;4984307;28;20050;-84
2023/02/02 08:26:33;;;;;;;3.60;2.15;;;;;;;7.80;51.92;101295.16;4954805;28;20046;-94
2023/02/02 08:29:01;;;;;;;5.28;2.50;;;;;;;7.79;52.02;101288.31;4986889;28;20030;-87
2023/02/02 08:31:34;;;;;;;7.53;3.60;;;;;;;7.83;52.51;101296.81;4987761;28;20030;-81
2023/02/02 08:34:03;;;;;;;4.28;2.65;;;;;;;7.84;52.73;101299.34;4972556;28;20027;-94
2023/02/02 08:36:29;;;;;;;3.95;3.45;;;;;;;7.79;52.39;101285.75;4957736;28;20030;-86
2023/02/02 08:38:54;;;;;;;2.28;1.52;;;;;;;7.82;52.48;101295.13;4989051;28;20037;-95
2023/02/02 08:41:22;;;;;;;3.72;1.50;;;;;;;7.85;52.75;101311.31;5009704;28;20041;-91
2023/02/02 08:43:48;;;;;;;3.55;1.60;;;;;;;7.96;52.37;101308.47;4965548;28;20034;-95
2023/02/02 08:46:14;;;;;;;4.82;2.47;;;;;;;7.98;52.44;101312.72;4979193;28;20063;-94
2023/02/02 08:48:40;;;;;;;6.32;3.63;;;;;;;8.09;51.91;101306.41;4989335;28;20488;-91
2023/02/02 08:51:06;;;;;;;5.57;2.90;;;;;;;8.08;51.80;101318.47;4981352;28;20118;-90
2023/02/02 08:53:32;;;;;;;2.03;1.63;;;;;;;8.17;52.09;101313.06;4963506;28;20216;-94
2023/02/02 08:56:06;;;;;;;2.20;2.00;;;;;;;8.16;51.99;101319.09;4977987;28;20030;-95
2023/02/02 08:58:32;;;;;;;2.65;2.45;;;;;;;8.06;52.32;101304.75;5001617;28;20045;-93
2023/02/02 09:01:11;;;;;;;1.80;1.60;;;;;;;8.07;52.26;101315.94;4991545;28;20027;-93
2023/02/02 09:03:39;;;;;;;2.35;1.70;;;;;;;8.18;51.88;101311.31;5007525;28;20059;-94
2023/02/02 09:06:09;;;;;;;3.10;2.25;;;;;;;8.25;51.85;101326.53;4959985;28;20082;-95
2023/02/02 09:08:34;;;;;;;11.10;2.45;;;;;;;8.20;51.30;101312.94;4975020;28;20031;-91
2023/02/02 09:11:07;;;;;;;4.85;2.53;;;;;;;8.48;51.71;101322.50;4970404;28;20105;-90
2023/02/02 09:13:32;;;;;;;;;;;;;;;8.70;51.39;101354.50;4974933;28;20093;-88
2023/02/02 09:15:59;;;;;;;5.88;2.47;;;;;;;8.64;51.22;101344.38;5007534;28;20336;-82
2023/02/02 09:18:25;;;;;;;5.25;2.50;;;;;;;8.83;52.01;101355.84;4977504;28;20031;-91
2023/02/02 09:20:50;;;;;;;4.45;3.00;;;;;;;8.83;51.71;101363.56;4985311;28;20043;-89
2023/02/02 09:23:16;;;;;;;7.68;3.55;;;;;;;8.87;51.53;101366.94;4973714;28;20122;-90
2023/02/02 09:25:41;;;;;;;1.80;1.55;;;;;;;8.84;50.91;101362.69;4979787;28;20502;-88
2023/02/02 09:28:07;;;;;;;5.28;3.20;;;;;;;8.69;51.27;101363.16;4985495;28;20026;-84
2023/02/02 09:30:32;;;;;;;3.53;2.70;;;;;;;8.53;51.24;101341.25;4988969;28;20038;-91
2023/02/02 09:32:58;;;;;;;21.75;8.48;;;;;;;8.57;51.88;101384.16;4973172;28;20485;-92
2023/02/02 09:35:23;;;;;;;4.20;1.80;;;;;;;8.50;52.91;101378.31;4967830;28;20054;-85
2023/02/02 09:37:48;;;;;;;3.92;2.42;;;;;;;8.38;54.04;101382.97;4977890;28;20058;-87
2023/02/02 09:40:18;;;;;;;3.25;2.47;;;;;;;8.34;54.73;101411.41;4990894;28;20034;-87
2023/02/02 09:43:05;;;;;;;5.47;3.35;;;;;;;8.03;57.49;101419.06;5003608;28;20035;-85
2023/02/02 09:45:38;;;;;;;3.35;2.10;;;;;;;7.68;61.12;101425.13;5002944;28;20081;-85
2023/02/02 09:48:28;;;;;;;3.45;2.20;;;;;;;7.41;63.34;101412.88;4992605;28;20030;-87
2023/02/02 09:50:58;;;;;;;6.00;4.00;;;;;;;7.36;66.07;101420.69;4991921;28;20026;-89
2023/02/02 09:53:31;;;;;;;3.55;2.30;;;;;;;7.24;65.73;101433.00;4980891;28;20117;-88
2023/02/02 09:55:59;;;;;;;5.50;2.58;;;;;;;6.98;65.61;101451.56;5004135;28;20030;-80
2023/02/02 09:58:44;;;;;;;5.07;2.63;;;;;;;6.85;66.73;101445.84;4991719;28;20081;-90
2023/02/02 10:01:12;;;;;;;3.00;2.13;;;;;;;6.80;68.71;101434.81;5000266;28;20054;-93
2023/02/02 10:04:00;;;;;;;2.55;1.77;;;;;;;6.83;68.78;101427.03;4982641;28;20034;-91
2023/02/02 10:06:39;;;;;;;3.22;2.28;;;;;;;6.72;69.49;101431.53;4990159;28;20023;-88
2023/02/02 10:09:33;;;;;;;4.75;2.67;;;;;;;6.64;70.05;101420.56;4994163;28;20023;-84
2023/02/02 10:12:17;;;;;;;3.70;2.13;;;;;;;6.71;71.41;101422.13;5008213;28;20378;-84
2023/02/02 10:15:11;;;;;;;4.20;1.70;;;;;;;6.57;70.28;101406.97;5012430;28;20366;-86
2023/02/02 10:17:39;;;;;;;2.67;1.92;;;;;;;6.57;71.02;101422.41;4989686;28;20101;-89
2023/02/02 10:20:30;;;;;;;3.00;1.92;;;;;;;6.54;70.59;101407.03;5010061;28;20100;-93
2023/02/02 10:22:57;;;;;;;3.42;2.00;;;;;;;6.60;71.17;101412.91;4989356;28;20425;-83
2023/02/02 10:25:25;;;;;;;13.93;2.63;;;;;;;6.58;70.64;101409.50;4999751;28;20429;-84
2023/02/02 10:28:05;;;;;;;5.20;3.10;;;;;;;6.38;70.90;101379.94;4993134;28;20543;-85
2023/02/02 10:30:58;;;;;;;2.42;2.20;;;;;;;6.65;70.56;101453.09;5009280;28;20069;-87
2023/02/02 10:33:39;;;;;;;;;;;;;;;6.64;71.34;101454.81;5013726;28;20100;-83
2023/02/02 10:36:23;;;;;;;6.35;3.05;;;;;;;6.52;71.08;101465.34;5009989;28;19936;-90
2023/02/02 10:38:58;;;;;;;1.85;1.35;;;;;;;6.25;71.84;101444.41;4992067;28;20069;-85
2023/02/02 10:41:32;;;;;;;6.88;3.42;;;;;;;6.33;72.58;101449.41;4994833;28;20038;-87
2023/02/02 10:44:45;;;;;;;6.00;3.92;;;;;;;6.33;72.45;101469.97;5013913;28;20116;-92
2023/02/02 10:47:13;;;;;;;4.55;3.13;;;;;;;6.30;73.25;101470.03;4964510;28;20030;-88
2023/02/02 10:49:39;;;;;;;1.90;1.42;;;;;;;6.00;73.99;101444.00;5003038;28;20045;-87
2023/02/02 10:52:16;;;;;;;1.70;1.13;;;;;;;6.06;72.91;101450.75;5026628;28;20088;-88
2023/02/02 10:55:00;;;;;;;5.30;3.28;;;;;;;5.95;74.19;101453.50;5010148;28;20085;-85
2023/02/02 10:57:33;;;;;;;2.05;1.67;;;;;;;5.72;73.05;101430.75;5025880;28;20483;-88
2023/02/02 11:00:20;;;;;;;1.63;1.33;;;;;;;5.75;73.67;101451.22;5021763;28;20049;-80
2023/02/02 11:02:46;;;;;;;1.13;1.02;;;;;;;5.52;74.86;101426.78;5010334;28;20036;-88
2023/02/02 11:08:13;;;;;;;0.40;0.40;;;;;;;5.57;75.77;101409.59;4992368;28;20049;-86
2023/02/02 11:10:38;;;;;;;0.88;0.88;;;;;;;5.34;74.97;101397.13;5005957;28;20061;-84
2023/02/02 11:13:05;;;;;;;1.50;1.05;;;;;;;5.25;76.73;101377.56;5008737;28;20049;-88
2023/02/02 11:15:30;;;;;;;3.13;1.42;;;;;;;5.19;76.45;101378.50;4993299;28;20512;-87
2023/02/02 11:17:58;;;;;;;4.35;2.40;;;;;;;5.03;77.21;101366.78;4991639;28;20025;-85
2023/02/02 11:20:33;;;;;;;4.63;2.60;;;;;;;5.00;76.28;101355.72;4972727;28;20452;-85
2023/02/02 11:23:00;;;;;;;7.68;1.30;;;;;;;5.14;77.15;101390.56;4988716;28;20029;-86
2023/02/02 11:25:32;;;;;;;2.70;1.65;;;;;;;5.16;76.57;101390.53;4989035;28;20871;-88
2023/02/02 11:27:58;;;;;;;1.57;1.40;;;;;;;5.03;76.11;101361.66;4973359;28;20030;-91
2023/02/02 11:30:31;;;;;;;2.60;2.15;;;;;;;5.08;75.76;101367.56;4973830;28;20364;-91
2023/02/02 11:32:57;;;;;;;10.05;2.70;;;;;;;5.01;75.33;101373.63;4999225;28;20490;-87
2023/02/02 11:35:24;;;;;;;1.83;1.42;;;;;;;5.06;75.33;101376.16;4989707;28;20037;-92
2023/02/02 11:38:09;;;;;;;0.38;0.32;;;;;;;5.11;75.72;101389.75;4975420;28;20026;-86
2023/02/02 11:40:41;;;;;;;0.88;0.80;;;;;;;5.09;75.09;101386.34;4981177;28;20528;-89
2023/02/02 11:43:23;;;;;;;2.30;1.48;;;;;;;4.97;75.27;101358.31;4972159;28;20033;-88
2023/02/02 11:45:56;;;;;;;4.38;2.15;;;;;;;5.12;73.93;101356.41;4989201;28;20026;-88
2023/02/02 11:48:25;;;;;;;7.20;3.78;;;;;;;5.25;73.15;101357.06;4972935;28;20030;-90
2023/02/02 11:50:55;;;;;;;1.27;1.02;;;;;;;5.31;73.29;101376.63;4973559;28;20206;-88
2023/02/02 11:53:22;;;;;;;2.58;1.27;;;;;;;5.38;72.76;101367.97;4957613;28;20486;-92